sensor_id;sensor_type;location;lat;lon;timestamp;P1;durP1;ratioP1;P2;durP2;ratioP2
14187;SDS011;7175;51.978;5.330;2023-06-14T00:02:24;19.50;;;18.20;;
14187;SDS011;7175;51.978;5.330;2023-06-14T00:04:52;19.67;;;18.37;;
14187;SDS011;7175;51.978;5.330;2023-06-14T00:07:22;20.00;;;18.70;;
14187;SDS011;7175;51.978;5.330;2023-06-14T00:10:01;19.60;;;18.30;;
14187;SDS011;7175;51.978;5.330;2023-06-14T00:12:32;19.37;;;18.07;;
14187;SDS011;7175;51.978;5.330;2023-06-14T00:15:00;19.07;;;17.77;;
14187;SDS011;7175;51.978;5.330;2023-06-14T00:17:28;19.13;;;17.87;;
14187;SDS011;7175;51.978;5.330;2023-06-14T00:19:57;19.33;;;18.03;;
14187;SDS011;7175;51.978;5.330;2023-06-14T00:22:26;19.53;;;18.23;;
14187;SDS011;7175;51.978;5.330;2023-06-14T00:24:55;19.60;;;18.30;;
14187;SDS011;7175;51.978;5.330;2023-06-14T00:27:23;19.67;;;18.37;;
14187;SDS011;7175;51.978;5.330;2023-06-14T00:29:52;19.43;;;18.13;;
14187;SDS011;7175;51.978;5.330;2023-06-14T00:32:20;19.50;;;18.20;;
14187;SDS011;7175;51.978;5.330;2023-06-14T00:34:52;19.63;;;18.33;;
14187;SDS011;7175;51.978;5.330;2023-06-14T00:37:20;19.47;;;18.17;;
14187;SDS011;7175;51.978;5.330;2023-06-14T00:39:48;19.30;;;18.00;;
14187;SDS011;7175;51.978;5.330;2023-06-14T00:42:23;18.60;;;17.40;;
14187;SDS011;7175;51.978;5.330;2023-06-14T00:44:53;19.33;;;18.13;;
14187;SDS011;7175;51.978;5.330;2023-06-14T00:47:21;19.60;;;18.30;;
14187;SDS011;7175;51.978;5.330;2023-06-14T00:49:50;19.70;;;18.40;;
14187;SDS011;7175;51.978;5.330;2023-06-14T00:52:20;20.00;;;18.70;;
14187;SDS011;7175;51.978;5.330;2023-06-14T00:54:50;19.60;;;18.30;;
14187;SDS011;7175;51.978;5.330;2023-06-14T00:57:18;19.70;;;18.40;;
14187;SDS011;7175;51.978;5.330;2023-06-14T00:59:48;19.10;;;17.90;;
14187;SDS011;7175;51.978;5.330;2023-06-14T01:02:18;19.00;;;17.80;;
14187;SDS011;7175;51.978;5.330;2023-06-14T01:04:46;18.67;;;17.47;;
14187;SDS011;7175;51.978;5.330;2023-06-14T01:07:18;19.33;;;18.03;;
14187;SDS011;7175;51.978;5.330;2023-06-14T01:09:56;19.50;;;18.20;;
14187;SDS011;7175;51.978;5.330;2023-06-14T01:12:35;18.63;;;17.43;;
14187;SDS011;7175;51.978;5.330;2023-06-14T01:15:12;18.63;;;17.43;;
14187;SDS011;7175;51.978;5.330;2023-06-14T01:17:42;18.47;;;17.27;;
14187;SDS011;7175;51.978;5.330;2023-06-14T01:20:13;19.17;;;17.87;;
14187;SDS011;7175;51.978;5.330;2023-06-14T01:22:49;19.50;;;18.20;;
14187;SDS011;7175;51.978;5.330;2023-06-14T01:25:19;19.20;;;17.90;;
14187;SDS011;7175;51.978;5.330;2023-06-14T01:27:49;19.27;;;17.97;;
14187;SDS011;7175;51.978;5.330;2023-06-14T01:30:18;19.20;;;18.00;;
14187;SDS011;7175;51.978;5.330;2023-06-14T01:32:50;18.90;;;17.70;;
14187;SDS011;7175;51.978;5.330;2023-06-14T01:35:19;19.03;;;17.83;;
14187;SDS011;7175;51.978;5.330;2023-06-14T01:37:49;19.20;;;18.00;;
14187;SDS011;7175;51.978;5.330;2023-06-14T01:40:18;18.80;;;17.60;;
14187;SDS011;7175;51.978;5.330;2023-06-14T01:42:49;18.95;;;17.65;;
14187;SDS011;7175;51.978;5.330;2023-06-14T01:45:18;18.63;;;17.43;;
14187;SDS011;7175;51.978;5.330;2023-06-14T01:47:47;18.47;;;17.27;;
14187;SDS011;7175;51.978;5.330;2023-06-14T01:50:16;18.47;;;17.27;;
14187;SDS011;7175;51.978;5.330;2023-06-14T01:52:46;18.60;;;17.40;;
14187;SDS011;7175;51.978;5.330;2023-06-14T01:55:16;18.83;;;17.60;;
14187;SDS011;7175;51.978;5.330;2023-06-14T01:57:44;19.17;;;17.87;;
14187;SDS011;7175;51.978;5.330;2023-06-14T02:00:12;18.80;;;17.60;;
14187;SDS011;7175;51.978;5.330;2023-06-14T02:02:42;18.77;;;17.57;;
14187;SDS011;7175;51.978;5.330;2023-06-14T02:05:10;19.60;;;18.40;;
14187;SDS011;7175;51.978;5.330;2023-06-14T02:07:38;19.20;;;18.00;;
14187;SDS011;7175;51.978;5.330;2023-06-14T02:10:08;19.20;;;18.00;;
14187;SDS011;7175;51.978;5.330;2023-06-14T02:12:36;19.30;;;18.10;;
14187;SDS011;7175;51.978;5.330;2023-06-14T02:15:04;19.67;;;18.47;;
14187;SDS011;7175;51.978;5.330;2023-06-14T02:17:33;19.73;;;18.43;;
14187;SDS011;7175;51.978;5.330;2023-06-14T02:20:02;19.70;;;18.50;;
14187;SDS011;7175;51.978;5.330;2023-06-14T02:22:31;20.07;;;18.77;;
14187;SDS011;7175;51.978;5.330;2023-06-14T02:24:59;19.50;;;18.30;;
14187;SDS011;7175;51.978;5.330;2023-06-14T02:27:29;19.60;;;18.40;;
14187;SDS011;7175;51.978;5.330;2023-06-14T02:29:57;20.17;;;18.87;;
14187;SDS011;7175;51.978;5.330;2023-06-14T02:32:25;20.50;;;19.20;;
14187;SDS011;7175;51.978;5.330;2023-06-14T02:34:54;19.70;;;18.50;;
14187;SDS011;7175;51.978;5.330;2023-06-14T02:37:22;19.60;;;18.40;;
14187;SDS011;7175;51.978;5.330;2023-06-14T02:39:50;20.17;;;18.87;;
14187;SDS011;7175;51.978;5.330;2023-06-14T02:42:18;19.80;;;18.60;;
14187;SDS011;7175;51.978;5.330;2023-06-14T02:44:47;19.77;;;18.47;;
14187;SDS011;7175;51.978;5.330;2023-06-14T02:47:17;20.30;;;19.00;;
14187;SDS011;7175;51.978;5.330;2023-06-14T02:49:45;20.53;;;19.23;;
14187;SDS011;7175;51.978;5.330;2023-06-14T02:52:13;20.37;;;19.07;;
14187;SDS011;7175;51.978;5.330;2023-06-14T02:54:42;20.40;;;19.10;;
14187;SDS011;7175;51.978;5.330;2023-06-14T02:57:10;20.33;;;19.03;;
14187;SDS011;7175;51.978;5.330;2023-06-14T02:59:38;19.70;;;18.40;;
14187;SDS011;7175;51.978;5.330;2023-06-14T03:02:07;19.60;;;18.30;;
14187;SDS011;7175;51.978;5.330;2023-06-14T03:04:35;19.37;;;18.07;;
14187;SDS011;7175;51.978;5.330;2023-06-14T03:07:04;19.07;;;17.67;;
14187;SDS011;7175;51.978;5.330;2023-06-14T03:09:35;18.90;;;17.50;;
14187;SDS011;7175;51.978;5.330;2023-06-14T03:12:04;19.13;;;17.73;;
14187;SDS011;7175;51.978;5.330;2023-06-14T03:14:33;19.57;;;18.17;;
14187;SDS011;7175;51.978;5.330;2023-06-14T03:17:02;19.37;;;17.97;;
14187;SDS011;7175;51.978;5.330;2023-06-14T03:19:32;19.27;;;17.87;;
14187;SDS011;7175;51.978;5.330;2023-06-14T03:22:00;18.70;;;17.30;;
14187;SDS011;7175;51.978;5.330;2023-06-14T03:24:29;19.10;;;17.70;;
14187;SDS011;7175;51.978;5.330;2023-06-14T03:26:58;18.90;;;17.50;;
14187;SDS011;7175;51.978;5.330;2023-06-14T03:29:26;18.93;;;17.63;;
14187;SDS011;7175;51.978;5.330;2023-06-14T03:31:57;19.03;;;17.73;;
14187;SDS011;7175;51.978;5.330;2023-06-14T03:34:26;19.43;;;18.13;;
14187;SDS011;7175;51.978;5.330;2023-06-14T03:36:55;19.70;;;18.40;;
14187;SDS011;7175;51.978;5.330;2023-06-14T03:39:23;19.63;;;18.33;;
14187;SDS011;7175;51.978;5.330;2023-06-14T03:41:51;19.70;;;18.33;;
14187;SDS011;7175;51.978;5.330;2023-06-14T03:44:20;20.10;;;18.70;;
14187;SDS011;7175;51.978;5.330;2023-06-14T03:46:48;19.93;;;18.53;;
14187;SDS011;7175;51.978;5.330;2023-06-14T03:49:16;19.80;;;18.40;;
14187;SDS011;7175;51.978;5.330;2023-06-14T03:51:45;19.73;;;18.40;;
14187;SDS011;7175;51.978;5.330;2023-06-14T03:54:19;19.93;;;18.53;;
14187;SDS011;7175;51.978;5.330;2023-06-14T03:56:50;20.10;;;18.70;;
14187;SDS011;7175;51.978;5.330;2023-06-14T03:59:18;19.80;;;18.40;;
14187;SDS011;7175;51.978;5.330;2023-06-14T04:01:47;20.03;;;18.63;;
14187;SDS011;7175;51.978;5.330;2023-06-14T04:04:15;20.40;;;19.00;;
14187;SDS011;7175;51.978;5.330;2023-06-14T04:06:44;20.40;;;19.00;;
14187;SDS011;7175;51.978;5.330;2023-06-14T04:09:14;20.20;;;18.80;;
14187;SDS011;7175;51.978;5.330;2023-06-14T04:11:44;19.70;;;18.30;;
14187;SDS011;7175;51.978;5.330;2023-06-14T04:14:13;19.43;;;18.03;;
14187;SDS011;7175;51.978;5.330;2023-06-14T04:16:41;19.50;;;18.20;;
14187;SDS011;7175;51.978;5.330;2023-06-14T04:19:09;19.60;;;18.20;;
14187;SDS011;7175;51.978;5.330;2023-06-14T04:21:37;19.43;;;18.07;;
14187;SDS011;7175;51.978;5.330;2023-06-14T04:24:05;20.10;;;18.70;;
14187;SDS011;7175;51.978;5.330;2023-06-14T04:26:41;19.80;;;18.40;;
14187;SDS011;7175;51.978;5.330;2023-06-14T04:29:12;19.53;;;18.13;;
14187;SDS011;7175;51.978;5.330;2023-06-14T04:31:43;20.07;;;18.67;;
14187;SDS011;7175;51.978;5.330;2023-06-14T04:34:11;19.90;;;18.50;;
14187;SDS011;7175;51.978;5.330;2023-06-14T04:36:42;19.77;;;18.37;;
14187;SDS011;7175;51.978;5.330;2023-06-14T04:39:15;20.03;;;18.63;;
14187;SDS011;7175;51.978;5.330;2023-06-14T04:41:45;19.70;;;18.30;;
14187;SDS011;7175;51.978;5.330;2023-06-14T04:44:14;19.83;;;18.43;;
14187;SDS011;7175;51.978;5.330;2023-06-14T04:46:43;19.60;;;18.20;;
14187;SDS011;7175;51.978;5.330;2023-06-14T04:49:12;19.60;;;18.20;;
14187;SDS011;7175;51.978;5.330;2023-06-14T04:51:42;19.73;;;18.33;;
14187;SDS011;7175;51.978;5.330;2023-06-14T04:54:10;19.80;;;18.40;;
14187;SDS011;7175;51.978;5.330;2023-06-14T04:56:40;20.30;;;18.90;;
14187;SDS011;7175;51.978;5.330;2023-06-14T04:59:08;19.80;;;18.40;;
14187;SDS011;7175;51.978;5.330;2023-06-14T05:01:39;19.73;;;18.33;;
14187;SDS011;7175;51.978;5.330;2023-06-14T05:04:07;19.80;;;18.40;;
14187;SDS011;7175;51.978;5.330;2023-06-14T05:06:36;19.67;;;18.27;;
14187;SDS011;7175;51.978;5.330;2023-06-14T05:09:04;19.50;;;18.10;;
14187;SDS011;7175;51.978;5.330;2023-06-14T05:11:32;19.57;;;18.17;;
14187;SDS011;7175;51.978;5.330;2023-06-14T05:14:00;19.47;;;18.07;;
14187;SDS011;7175;51.978;5.330;2023-06-14T05:16:28;19.73;;;18.33;;
14187;SDS011;7175;51.978;5.330;2023-06-14T05:18:57;19.53;;;18.13;;
14187;SDS011;7175;51.978;5.330;2023-06-14T05:21:25;19.47;;;18.07;;
14187;SDS011;7175;51.978;5.330;2023-06-14T05:23:53;19.23;;;17.83;;
14187;SDS011;7175;51.978;5.330;2023-06-14T05:26:22;18.80;;;17.50;;
14187;SDS011;7175;51.978;5.330;2023-06-14T05:28:55;18.33;;;17.03;;
14187;SDS011;7175;51.978;5.330;2023-06-14T05:31:24;18.90;;;17.60;;
14187;SDS011;7175;51.978;5.330;2023-06-14T05:33:52;18.70;;;17.40;;
14187;SDS011;7175;51.978;5.330;2023-06-14T05:36:22;18.63;;;17.33;;
14187;SDS011;7175;51.978;5.330;2023-06-14T05:38:56;18.57;;;17.27;;
14187;SDS011;7175;51.978;5.330;2023-06-14T05:41:26;18.50;;;17.20;;
14187;SDS011;7175;51.978;5.330;2023-06-14T05:43:55;18.53;;;17.23;;
14187;SDS011;7175;51.978;5.330;2023-06-14T05:46:23;18.67;;;17.37;;
14187;SDS011;7175;51.978;5.330;2023-06-14T05:48:52;18.67;;;17.37;;
14187;SDS011;7175;51.978;5.330;2023-06-14T05:51:22;18.80;;;17.40;;
14187;SDS011;7175;51.978;5.330;2023-06-14T05:53:52;18.47;;;17.17;;
14187;SDS011;7175;51.978;5.330;2023-06-14T05:56:20;18.90;;;17.50;;
14187;SDS011;7175;51.978;5.330;2023-06-14T05:58:48;18.87;;;17.47;;
14187;SDS011;7175;51.978;5.330;2023-06-14T06:01:17;19.20;;;17.80;;
14187;SDS011;7175;51.978;5.330;2023-06-14T06:03:46;19.03;;;17.63;;
14187;SDS011;7175;51.978;5.330;2023-06-14T06:06:14;19.70;;;18.20;;
14187;SDS011;7175;51.978;5.330;2023-06-14T06:08:44;19.43;;;17.93;;
14187;SDS011;7175;51.978;5.330;2023-06-14T06:11:12;19.70;;;18.20;;
14187;SDS011;7175;51.978;5.330;2023-06-14T06:13:40;19.57;;;18.07;;
14187;SDS011;7175;51.978;5.330;2023-06-14T06:16:08;19.37;;;17.93;;
14187;SDS011;7175;51.978;5.330;2023-06-14T06:18:36;19.33;;;17.83;;
14187;SDS011;7175;51.978;5.330;2023-06-14T06:21:05;19.03;;;17.63;;
14187;SDS011;7175;51.978;5.330;2023-06-14T06:23:34;18.97;;;17.57;;
14187;SDS011;7175;51.978;5.330;2023-06-14T06:26:03;19.23;;;17.83;;
14187;SDS011;7175;51.978;5.330;2023-06-14T06:28:31;19.27;;;17.87;;
14187;SDS011;7175;51.978;5.330;2023-06-14T06:30:59;19.03;;;17.63;;
14187;SDS011;7175;51.978;5.330;2023-06-14T06:33:30;19.10;;;17.70;;
14187;SDS011;7175;51.978;5.330;2023-06-14T06:35:58;18.80;;;17.47;;
14187;SDS011;7175;51.978;5.330;2023-06-14T06:38:26;18.93;;;17.53;;
14187;SDS011;7175;51.978;5.330;2023-06-14T06:40:54;19.20;;;17.80;;
14187;SDS011;7175;51.978;5.330;2023-06-14T06:43:24;18.83;;;17.43;;
14187;SDS011;7175;51.978;5.330;2023-06-14T06:45:52;18.77;;;17.37;;
14187;SDS011;7175;51.978;5.330;2023-06-14T06:48:20;19.10;;;17.70;;
14187;SDS011;7175;51.978;5.330;2023-06-14T06:50:48;19.13;;;17.73;;
14187;SDS011;7175;51.978;5.330;2023-06-14T06:53:17;19.13;;;17.73;;
14187;SDS011;7175;51.978;5.330;2023-06-14T06:55:55;19.07;;;17.67;;
14187;SDS011;7175;51.978;5.330;2023-06-14T06:58:25;19.03;;;17.63;;
14187;SDS011;7175;51.978;5.330;2023-06-14T07:00:53;18.83;;;17.43;;
14187;SDS011;7175;51.978;5.330;2023-06-14T07:03:22;19.00;;;17.60;;
14187;SDS011;7175;51.978;5.330;2023-06-14T07:05:50;19.00;;;17.60;;
14187;SDS011;7175;51.978;5.330;2023-06-14T07:08:18;19.07;;;17.67;;
14187;SDS011;7175;51.978;5.330;2023-06-14T07:10:47;19.00;;;17.60;;
14187;SDS011;7175;51.978;5.330;2023-06-14T07:13:15;19.10;;;17.70;;
14187;SDS011;7175;51.978;5.330;2023-06-14T07:15:45;18.43;;;17.13;;
14187;SDS011;7175;51.978;5.330;2023-06-14T07:18:13;18.60;;;17.30;;
14187;SDS011;7175;51.978;5.330;2023-06-14T07:20:42;19.67;;;18.17;;
14187;SDS011;7175;51.978;5.330;2023-06-14T07:23:10;19.70;;;18.20;;
14187;SDS011;7175;51.978;5.330;2023-06-14T07:25:38;19.40;;;17.90;;
14187;SDS011;7175;51.978;5.330;2023-06-14T07:28:06;19.57;;;18.07;;
14187;SDS011;7175;51.978;5.330;2023-06-14T07:30:35;19.40;;;17.90;;
14187;SDS011;7175;51.978;5.330;2023-06-14T07:33:04;19.87;;;18.37;;
14187;SDS011;7175;51.978;5.330;2023-06-14T07:35:32;19.70;;;18.20;;
14187;SDS011;7175;51.978;5.330;2023-06-14T07:38:01;19.87;;;18.37;;
14187;SDS011;7175;51.978;5.330;2023-06-14T07:40:29;20.30;;;18.70;;
14187;SDS011;7175;51.978;5.330;2023-06-14T07:42:57;19.63;;;18.13;;
14187;SDS011;7175;51.978;5.330;2023-06-14T07:45:25;19.90;;;18.40;;
14187;SDS011;7175;51.978;5.330;2023-06-14T07:47:53;19.83;;;18.33;;
14187;SDS011;7175;51.978;5.330;2023-06-14T07:50:23;18.87;;;17.47;;
14187;SDS011;7175;51.978;5.330;2023-06-14T07:52:51;18.97;;;17.57;;
14187;SDS011;7175;51.978;5.330;2023-06-14T07:55:19;19.10;;;17.70;;
14187;SDS011;7175;51.978;5.330;2023-06-14T07:57:48;18.87;;;17.47;;
14187;SDS011;7175;51.978;5.330;2023-06-14T08:00:16;19.07;;;17.67;;
14187;SDS011;7175;51.978;5.330;2023-06-14T08:02:45;19.13;;;17.73;;
14187;SDS011;7175;51.978;5.330;2023-06-14T08:05:14;19.17;;;17.77;;
14187;SDS011;7175;51.978;5.330;2023-06-14T08:07:44;19.23;;;17.83;;
14187;SDS011;7175;51.978;5.330;2023-06-14T08:10:12;19.07;;;17.67;;
14187;SDS011;7175;51.978;5.330;2023-06-14T08:12:43;19.20;;;17.80;;
14187;SDS011;7175;51.978;5.330;2023-06-14T08:15:11;19.17;;;17.77;;
14187;SDS011;7175;51.978;5.330;2023-06-14T08:17:45;19.57;;;18.17;;
14187;SDS011;7175;51.978;5.330;2023-06-14T08:20:13;19.40;;;18.00;;
14187;SDS011;7175;51.978;5.330;2023-06-14T08:22:44;19.27;;;17.87;;
14187;SDS011;7175;51.978;5.330;2023-06-14T08:25:13;19.40;;;18.00;;
14187;SDS011;7175;51.978;5.330;2023-06-14T08:27:42;19.33;;;17.93;;
14187;SDS011;7175;51.978;5.330;2023-06-14T08:30:11;19.50;;;18.10;;
14187;SDS011;7175;51.978;5.330;2023-06-14T08:32:40;19.30;;;17.90;;
14187;SDS011;7175;51.978;5.330;2023-06-14T08:35:08;19.90;;;18.50;;
14187;SDS011;7175;51.978;5.330;2023-06-14T08:37:38;19.50;;;18.10;;
14187;SDS011;7175;51.978;5.330;2023-06-14T08:40:17;19.30;;;17.90;;
14187;SDS011;7175;51.978;5.330;2023-06-14T08:42:48;18.93;;;17.63;;
14187;SDS011;7175;51.978;5.330;2023-06-14T08:45:18;18.87;;;17.57;;
14187;SDS011;7175;51.978;5.330;2023-06-14T08:47:51;19.37;;;17.87;;
14187;SDS011;7175;51.978;5.330;2023-06-14T08:50:25;19.63;;;18.13;;
14187;SDS011;7175;51.978;5.330;2023-06-14T08:52:57;20.63;;;19.03;;
14187;SDS011;7175;51.978;5.330;2023-06-14T08:55:30;20.20;;;18.70;;
14187;SDS011;7175;51.978;5.330;2023-06-14T08:58:03;20.37;;;18.83;;
14187;SDS011;7175;51.978;5.330;2023-06-14T09:00:32;20.00;;;18.50;;
14187;SDS011;7175;51.978;5.330;2023-06-14T09:03:00;19.90;;;18.40;;
14187;SDS011;7175;51.978;5.330;2023-06-14T09:05:30;19.93;;;18.43;;
14187;SDS011;7175;51.978;5.330;2023-06-14T09:07:58;18.50;;;17.20;;
14187;SDS011;7175;51.978;5.330;2023-06-14T09:10:32;18.93;;;17.53;;
14187;SDS011;7175;51.978;5.330;2023-06-14T09:13:04;19.07;;;17.67;;
14187;SDS011;7175;51.978;5.330;2023-06-14T09:15:33;18.33;;;17.13;;
14187;SDS011;7175;51.978;5.330;2023-06-14T09:18:02;18.30;;;17.10;;
14187;SDS011;7175;51.978;5.330;2023-06-14T09:20:31;18.13;;;16.93;;
14187;SDS011;7175;51.978;5.330;2023-06-14T09:22:59;18.03;;;16.83;;
14187;SDS011;7175;51.978;5.330;2023-06-14T09:25:28;18.17;;;16.97;;
14187;SDS011;7175;51.978;5.330;2023-06-14T09:28:07;18.03;;;16.83;;
14187;SDS011;7175;51.978;5.330;2023-06-14T09:30:36;17.80;;;16.60;;
14187;SDS011;7175;51.978;5.330;2023-06-14T09:33:04;17.57;;;16.37;;
14187;SDS011;7175;51.978;5.330;2023-06-14T09:35:32;17.83;;;16.63;;
14187;SDS011;7175;51.978;5.330;2023-06-14T09:38:01;17.77;;;16.57;;
14187;SDS011;7175;51.978;5.330;2023-06-14T09:40:29;17.97;;;16.77;;
14187;SDS011;7175;51.978;5.330;2023-06-14T09:43:02;17.73;;;16.53;;
14187;SDS011;7175;51.978;5.330;2023-06-14T09:45:36;17.73;;;16.53;;
14187;SDS011;7175;51.978;5.330;2023-06-14T09:48:06;17.57;;;16.37;;
14187;SDS011;7175;51.978;5.330;2023-06-14T09:50:35;17.67;;;16.47;;
14187;SDS011;7175;51.978;5.330;2023-06-14T09:53:06;18.10;;;16.90;;
14187;SDS011;7175;51.978;5.330;2023-06-14T09:55:37;18.17;;;16.97;;
14187;SDS011;7175;51.978;5.330;2023-06-14T09:58:09;17.97;;;16.77;;
14187;SDS011;7175;51.978;5.330;2023-06-14T10:00:40;17.70;;;16.50;;
14187;SDS011;7175;51.978;5.330;2023-06-14T10:03:11;17.50;;;16.30;;
14187;SDS011;7175;51.978;5.330;2023-06-14T10:05:41;17.60;;;16.40;;
14187;SDS011;7175;51.978;5.330;2023-06-14T10:08:13;17.93;;;16.73;;
14187;SDS011;7175;51.978;5.330;2023-06-14T10:10:45;18.33;;;17.03;;
14187;SDS011;7175;51.978;5.330;2023-06-14T10:13:13;18.73;;;17.33;;
14187;SDS011;7175;51.978;5.330;2023-06-14T10:15:45;18.30;;;17.00;;
14187;SDS011;7175;51.978;5.330;2023-06-14T10:18:22;18.57;;;17.20;;
14187;SDS011;7175;51.978;5.330;2023-06-14T10:20:58;19.10;;;17.70;;
14187;SDS011;7175;51.978;5.330;2023-06-14T10:23:35;18.50;;;17.10;;
14187;SDS011;7175;51.978;5.330;2023-06-14T10:26:08;18.50;;;17.10;;
14187;SDS011;7175;51.978;5.330;2023-06-14T10:28:37;18.47;;;17.07;;
14187;SDS011;7175;51.978;5.330;2023-06-14T10:31:07;18.37;;;16.97;;
14187;SDS011;7175;51.978;5.330;2023-06-14T10:33:36;18.23;;;16.90;;
14187;SDS011;7175;51.978;5.330;2023-06-14T10:36:10;18.40;;;17.10;;
14187;SDS011;7175;51.978;5.330;2023-06-14T10:38:56;18.43;;;17.07;;
14187;SDS011;7175;51.978;5.330;2023-06-14T10:41:26;17.67;;;16.47;;
14187;SDS011;7175;51.978;5.330;2023-06-14T10:44:10;17.77;;;16.57;;
14187;SDS011;7175;51.978;5.330;2023-06-14T10:47:11;17.67;;;16.47;;
14187;SDS011;7175;51.978;5.330;2023-06-14T10:49:50;17.90;;;16.60;;
14187;SDS011;7175;51.978;5.330;2023-06-14T10:52:21;17.57;;;16.37;;
14187;SDS011;7175;51.978;5.330;2023-06-14T10:57:42;17.17;;;15.97;;
14187;SDS011;7175;51.978;5.330;2023-06-14T11:00:18;17.17;;;15.97;;
14187;SDS011;7175;51.978;5.330;2023-06-14T11:06:12;17.20;;;16.00;;
14187;SDS011;7175;51.978;5.330;2023-06-14T11:08:56;17.27;;;16.07;;
14187;SDS011;7175;51.978;5.330;2023-06-14T11:11:56;17.23;;;16.03;;
14187;SDS011;7175;51.978;5.330;2023-06-14T11:14:25;17.27;;;16.07;;
14187;SDS011;7175;51.978;5.330;2023-06-14T11:16:56;17.20;;;16.00;;
14187;SDS011;7175;51.978;5.330;2023-06-14T11:19:25;17.20;;;16.00;;
14187;SDS011;7175;51.978;5.330;2023-06-14T11:21:56;17.23;;;16.03;;
14187;SDS011;7175;51.978;5.330;2023-06-14T11:24:24;16.90;;;15.70;;
14187;SDS011;7175;51.978;5.330;2023-06-14T11:26:52;16.90;;;15.70;;
14187;SDS011;7175;51.978;5.330;2023-06-14T11:32:48;16.87;;;15.67;;
14187;SDS011;7175;51.978;5.330;2023-06-14T11:35:21;17.87;;;16.47;;
14187;SDS011;7175;51.978;5.330;2023-06-14T11:37:53;17.53;;;16.23;;
14187;SDS011;7175;51.978;5.330;2023-06-14T11:40:23;17.77;;;16.47;;
14187;SDS011;7175;51.978;5.330;2023-06-14T11:42:57;17.50;;;16.20;;
14187;SDS011;7175;51.978;5.330;2023-06-14T11:45:27;17.57;;;16.27;;
14187;SDS011;7175;51.978;5.330;2023-06-14T11:47:58;18.03;;;16.63;;
14187;SDS011;7175;51.978;5.330;2023-06-14T11:50:27;17.97;;;16.60;;
14187;SDS011;7175;51.978;5.330;2023-06-14T11:52:57;17.80;;;16.50;;
14187;SDS011;7175;51.978;5.330;2023-06-14T11:55:35;17.90;;;16.60;;
14187;SDS011;7175;51.978;5.330;2023-06-14T11:58:04;17.80;;;16.50;;
14187;SDS011;7175;51.978;5.330;2023-06-14T12:00:35;18.37;;;16.97;;
14187;SDS011;7175;51.978;5.330;2023-06-14T12:03:04;17.93;;;16.63;;
14187;SDS011;7175;51.978;5.330;2023-06-14T12:05:32;18.17;;;16.77;;
14187;SDS011;7175;51.978;5.330;2023-06-14T12:08:03;17.90;;;16.50;;
14187;SDS011;7175;51.978;5.330;2023-06-14T12:10:43;17.67;;;16.37;;
14187;SDS011;7175;51.978;5.330;2023-06-14T12:13:11;17.27;;;16.07;;
14187;SDS011;7175;51.978;5.330;2023-06-14T12:15:39;18.00;;;16.70;;
14187;SDS011;7175;51.978;5.330;2023-06-14T12:18:09;18.63;;;17.23;;
14187;SDS011;7175;51.978;5.330;2023-06-14T12:20:39;18.43;;;17.10;;
14187;SDS011;7175;51.978;5.330;2023-06-14T12:23:10;17.40;;;16.20;;
14187;SDS011;7175;51.978;5.330;2023-06-14T12:25:38;18.23;;;16.93;;
14187;SDS011;7175;51.978;5.330;2023-06-14T12:28:07;18.20;;;16.90;;
14187;SDS011;7175;51.978;5.330;2023-06-14T12:30:37;18.20;;;16.90;;
14187;SDS011;7175;51.978;5.330;2023-06-14T12:33:05;18.30;;;16.90;;
14187;SDS011;7175;51.978;5.330;2023-06-14T12:35:34;18.77;;;17.37;;
14187;SDS011;7175;51.978;5.330;2023-06-14T12:38:03;19.17;;;17.77;;
14187;SDS011;7175;51.978;5.330;2023-06-14T12:40:32;18.80;;;17.40;;
14187;SDS011;7175;51.978;5.330;2023-06-14T12:43:02;18.43;;;17.13;;
14187;SDS011;7175;51.978;5.330;2023-06-14T12:45:30;18.47;;;17.17;;
14187;SDS011;7175;51.978;5.330;2023-06-14T12:47:59;18.43;;;17.10;;
14187;SDS011;7175;51.978;5.330;2023-06-14T12:50:27;18.70;;;17.30;;
14187;SDS011;7175;51.978;5.330;2023-06-14T12:52:56;18.40;;;17.10;;
14187;SDS011;7175;51.978;5.330;2023-06-14T12:55:25;18.57;;;17.17;;
14187;SDS011;7175;51.978;5.330;2023-06-14T12:57:55;18.67;;;17.27;;
14187;SDS011;7175;51.978;5.330;2023-06-14T13:00:24;18.73;;;17.33;;
14187;SDS011;7175;51.978;5.330;2023-06-14T13:02:53;19.53;;;18.03;;
14187;SDS011;7175;51.978;5.330;2023-06-14T13:05:22;19.60;;;18.10;;
14187;SDS011;7175;51.978;5.330;2023-06-14T13:07:50;19.40;;;17.90;;
14187;SDS011;7175;51.978;5.330;2023-06-14T13:10:19;19.27;;;17.77;;
14187;SDS011;7175;51.978;5.330;2023-06-14T13:12:47;18.80;;;17.40;;
14187;SDS011;7175;51.978;5.330;2023-06-14T13:15:17;18.83;;;17.43;;
14187;SDS011;7175;51.978;5.330;2023-06-14T13:17:45;18.90;;;17.50;;
14187;SDS011;7175;51.978;5.330;2023-06-14T13:20:15;19.00;;;17.57;;
14187;SDS011;7175;51.978;5.330;2023-06-14T13:22:46;19.10;;;17.60;;
14187;SDS011;7175;51.978;5.330;2023-06-14T13:25:14;18.97;;;17.47;;
14187;SDS011;7175;51.978;5.330;2023-06-14T13:27:43;19.00;;;17.50;;
14187;SDS011;7175;51.978;5.330;2023-06-14T13:30:12;19.50;;;18.00;;
14187;SDS011;7175;51.978;5.330;2023-06-14T13:32:43;19.37;;;17.87;;
14187;SDS011;7175;51.978;5.330;2023-06-14T13:35:16;18.23;;;16.93;;
14187;SDS011;7175;51.978;5.330;2023-06-14T13:37:44;18.43;;;17.13;;
14187;SDS011;7175;51.978;5.330;2023-06-14T13:40:13;18.60;;;17.30;;
14187;SDS011;7175;51.978;5.330;2023-06-14T13:42:43;18.60;;;17.30;;
14187;SDS011;7175;51.978;5.330;2023-06-14T13:45:13;18.63;;;17.33;;
14187;SDS011;7175;51.978;5.330;2023-06-14T13:47:44;18.37;;;17.07;;
14187;SDS011;7175;51.978;5.330;2023-06-14T13:50:15;18.60;;;17.30;;
14187;SDS011;7175;51.978;5.330;2023-06-14T13:52:46;18.40;;;17.10;;
14187;SDS011;7175;51.978;5.330;2023-06-14T13:55:15;18.50;;;17.10;;
14187;SDS011;7175;51.978;5.330;2023-06-14T13:57:43;18.77;;;17.40;;
14187;SDS011;7175;51.978;5.330;2023-06-14T14:00:12;18.87;;;17.47;;
14187;SDS011;7175;51.978;5.330;2023-06-14T14:02:43;19.50;;;18.10;;
14187;SDS011;7175;51.978;5.330;2023-06-14T14:05:12;19.17;;;17.77;;
14187;SDS011;7175;51.978;5.330;2023-06-14T14:07:40;19.30;;;17.90;;
14187;SDS011;7175;51.978;5.330;2023-06-14T14:10:09;19.00;;;17.60;;
14187;SDS011;7175;51.978;5.330;2023-06-14T14:12:40;18.80;;;17.40;;
14187;SDS011;7175;51.978;5.330;2023-06-14T14:15:12;18.70;;;17.30;;
14187;SDS011;7175;51.978;5.330;2023-06-14T14:17:44;19.10;;;17.60;;
14187;SDS011;7175;51.978;5.330;2023-06-14T14:20:12;19.03;;;17.53;;
14187;SDS011;7175;51.978;5.330;2023-06-14T14:22:43;19.00;;;17.50;;
14187;SDS011;7175;51.978;5.330;2023-06-14T14:25:11;18.97;;;17.47;;
14187;SDS011;7175;51.978;5.330;2023-06-14T14:27:39;19.03;;;17.53;;
14187;SDS011;7175;51.978;5.330;2023-06-14T14:30:08;18.87;;;17.40;;
14187;SDS011;7175;51.978;5.330;2023-06-14T14:32:39;18.57;;;17.10;;
14187;SDS011;7175;51.978;5.330;2023-06-14T14:35:10;19.10;;;17.60;;
14187;SDS011;7175;51.978;5.330;2023-06-14T14:37:39;18.90;;;17.40;;
14187;SDS011;7175;51.978;5.330;2023-06-14T14:40:08;19.00;;;17.50;;
14187;SDS011;7175;51.978;5.330;2023-06-14T14:42:37;18.80;;;17.30;;
14187;SDS011;7175;51.978;5.330;2023-06-14T14:45:06;18.70;;;17.20;;
14187;SDS011;7175;51.978;5.330;2023-06-14T14:47:35;18.30;;;16.90;;
14187;SDS011;7175;51.978;5.330;2023-06-14T14:50:05;18.80;;;17.30;;
14187;SDS011;7175;51.978;5.330;2023-06-14T14:52:37;18.90;;;17.40;;
14187;SDS011;7175;51.978;5.330;2023-06-14T14:55:06;18.77;;;17.27;;
14187;SDS011;7175;51.978;5.330;2023-06-14T14:57:35;18.10;;;16.80;;
14187;SDS011;7175;51.978;5.330;2023-06-14T15:00:05;18.03;;;16.73;;